Time;durP1;ratioP1;P1;durP2;ratioP2;P2;SDS_P1;SDS_P2;PMS_P1;PMS_P2;Temp;Humidity;BMP_temperature;BMP_pressure;BME280_temperature;BME280_humidity;BME280_pressure;Samples;Min_cycle;Max_cycle;Signal;HPM_P1;HPM_P2
2023/04/01 00:02:04;;;;;;;1.30;1.10;;;9.90;98.00;;;;;;5051184;28;20562;-70
2023/04/01 00:04:32;;;;;;;1.20;0.90;;;9.90;98.00;;;;;;5051233;28;20480;-70
2023/04/01 00:06:59;;;;;;;1.10;1.00;;;9.90;98.00;;;;;;5051206;28;20459;-70
2023/04/01 00:09:26;;;;;;;2.13;1.43;;;9.90;98.00;;;;;;5051163;28;20457;-69
2023/04/01 00:11:57;;;;;;;1.13;0.97;;;9.90;98.00;;;;;;5051236;28;20638;-70
2023/04/01 00:14:24;;;;;;;1.30;1.03;;;9.80;98.00;;;;;;5049718;28;20461;-69
2023/04/01 00:16:52;;;;;;;1.20;1.00;;;9.80;98.00;;;;;;5051094;28;20866;-70
2023/04/01 00:19:20;;;;;;;1.37;1.10;;;9.80;98.00;;;;;;5051048;28;20463;-70
2023/04/01 00:21:47;;;;;;;1.20;1.10;;;9.80;98.00;;;;;;5050789;28;20520;-70
2023/04/01 00:24:15;;;;;;;1.57;1.10;;;9.80;98.00;;;;;;5051118;28;20454;-70
2023/04/01 00:26:43;;;;;;;1.20;1.00;;;9.80;98.00;;;;;;5051122;28;20536;-70
2023/04/01 00:29:12;;;;;;;2.77;1.33;;;9.80;98.00;;;;;;5051174;28;20792;-70
2023/04/01 00:31:39;;;;;;;1.20;1.00;;;9.80;98.00;;;;;;5050939;28;20949;-70
2023/04/01 00:34:06;;;;;;;1.40;1.10;;;9.80;98.00;;;;;;5050934;28;21126;-70
2023/04/01 00:36:35;;;;;;;1.30;1.10;;;9.80;98.00;;;;;;5049694;28;20495;-70
2023/04/01 00:39:02;;;;;;;1.10;1.00;;;9.80;98.00;;;;;;5049649;28;20507;-70
2023/04/01 00:41:29;;;;;;;1.80;1.00;;;9.80;98.00;;;;;;5050612;28;20458;-70
2023/04/01 00:44:19;;;;;;;4.60;1.60;;;9.80;98.00;;;;;;5050615;28;20997;-70
2023/04/01 00:46:46;;;;;;;1.60;1.10;;;9.90;98.00;;;;;;5050678;28;21035;-70
2023/04/01 00:49:14;;;;;;;1.20;1.00;;;9.80;98.00;;;;;;5050760;28;20876;-70
2023/04/01 00:51:43;;;;;;;2.50;1.13;;;9.80;98.00;;;;;;5050646;28;20808;-70
2023/04/01 00:54:11;;;;;;;1.70;1.10;;;9.80;98.00;;;;;;5050585;28;20501;-70
2023/04/01 00:56:42;;;;;;;1.20;1.00;;;9.80;98.00;;;;;;5050585;28;20870;-69
2023/04/01 00:59:14;;;;;;;1.40;1.20;;;9.80;98.00;;;;;;5050650;28;20833;-70
2023/04/01 01:01:43;;;;;;;1.53;1.20;;;9.80;98.00;;;;;;5050546;28;20480;-70
2023/04/01 01:04:26;;;;;;;4.70;1.17;;;9.80;98.00;;;;;;5050904;28;20464;-70
2023/04/01 01:07:02;;;;;;;1.20;1.00;;;9.80;98.00;;;;;;5050628;28;20553;-70
2023/04/01 01:09:43;;;;;;;1.97;1.20;;;9.80;98.00;;;;;;5053380;28;20492;-69
2023/04/01 01:12:14;;;;;;;1.20;0.93;;;9.80;98.00;;;;;;5054077;28;20874;-69
2023/04/01 01:14:51;;;;;;;1.20;1.00;;;9.80;98.00;;;;;;5054186;28;20457;-70
2023/04/01 01:17:30;;;;;;;1.17;0.90;;;9.80;98.00;;;;;;5054184;28;20485;-70
2023/04/01 01:20:23;;;;;;;1.30;1.00;;;9.80;98.00;;;;;;5054103;28;20460;-70
2023/04/01 01:23:08;;;;;;;5.40;1.10;;;9.80;98.00;;;;;;5044101;28;20487;-70
2023/04/01 01:25:45;;;;;;;1.20;0.90;;;9.80;98.00;;;;;;5054330;28;20492;-69
2023/04/01 01:28:34;;;;;;;1.30;1.10;;;9.70;98.00;;;;;;5054056;28;20492;-70
2023/04/01 01:31:12;;;;;;;1.60;1.20;;;9.70;98.00;;;;;;5053900;28;20469;-70
2023/04/01 01:33:55;;;;;;;1.60;1.10;;;9.60;98.00;;;;;;5053932;28;20465;-69
2023/04/01 01:36:27;;;;;;;4.83;1.00;;;9.60;98.00;;;;;;5053692;28;20512;-70
2023/04/01 01:38:55;;;;;;;1.93;1.10;;;9.50;98.00;;;;;;5053398;28;20465;-70
2023/04/01 01:41:30;;;;;;;1.20;1.00;;;9.50;98.00;;;;;;5053519;28;20468;-70
2023/04/01 01:43:59;;;;;;;1.20;0.90;;;9.50;98.00;;;;;;5053745;28;20486;-70
2023/04/01 01:46:28;;;;;;;1.90;1.03;;;9.50;98.00;;;;;;5053559;28;20995;-70
2023/04/01 01:48:58;;;;;;;1.90;1.00;;;9.60;98.00;;;;;;5053640;28;20963;-70
2023/04/01 01:51:29;;;;;;;1.20;0.90;;;9.60;98.00;;;;;;5053537;28;20463;-70
2023/04/01 01:53:59;;;;;;;1.30;1.10;;;9.60;98.00;;;;;;5053556;28;20527;-70
2023/04/01 01:56:30;;;;;;;1.10;0.90;;;9.50;98.00;;;;;;5054102;28;20462;-70
2023/04/01 01:59:01;;;;;;;1.40;1.20;;;9.50;98.00;;;;;;5053990;28;20468;-70
2023/04/01 02:01:32;;;;;;;2.30;1.07;;;9.40;98.00;;;;;;5053875;28;20974;-70
2023/04/01 02:04:06;;;;;;;1.17;0.97;;;9.40;98.00;;;;;;5054112;28;20497;-70
2023/04/01 02:06:39;;;;;;;2.30;1.30;;;9.40;98.00;;;;;;5053137;28;20454;-71
2023/04/01 02:09:10;;;;;;;2.23;1.10;;;9.40;98.00;;;;;;5053302;28;20471;-70
2023/04/01 02:11:43;;;;;;;2.03;1.20;;;9.40;98.00;;;;;;5053049;28;20458;-70
2023/04/01 02:14:15;;;;;;;1.40;1.00;;;9.30;98.00;;;;;;5051878;28;20458;-70
2023/04/01 02:16:48;;;;;;;1.40;1.00;;;9.30;98.00;;;;;;5051603;28;20899;-70
2023/04/01 02:19:22;;;;;;;1.20;1.00;;;9.30;98.00;;;;;;5052688;28;20877;-71
2023/04/01 02:21:56;;;;;;;1.23;1.00;;;9.20;98.00;;;;;;5053032;28;20461;-69
2023/04/01 02:24:25;;;;;;;1.17;1.00;;;9.30;98.00;;;;;;5053042;28;20556;-71
2023/04/01 02:26:53;;;;;;;1.30;1.10;;;9.30;98.00;;;;;;5052917;28;20457;-70
2023/04/01 02:29:24;;;;;;;1.10;1.00;;;9.30;98.00;;;;;;5052836;28;20464;-70
2023/04/01 02:31:53;;;;;;;1.17;0.97;;;9.30;98.00;;;;;;5052713;28;20462;-70
2023/04/01 02:34:21;;;;;;;1.20;0.90;;;9.30;98.00;;;;;;5053145;28;20739;-71
2023/04/01 02:36:49;;;;;;;1.20;0.90;;;9.30;98.00;;;;;;5052624;28;20800;-70
2023/04/01 02:39:18;;;;;;;1.10;0.90;;;9.20;98.00;;;;;;5052629;28;20529;-69
2023/04/01 02:41:46;;;;;;;1.10;0.93;;;9.20;98.00;;;;;;5052299;28;20969;-71
2023/04/01 02:44:16;;;;;;;1.30;1.00;;;9.20;98.00;;;;;;5052413;28;20551;-70
2023/04/01 02:46:43;;;;;;;1.10;1.00;;;9.20;98.00;;;;;;5052405;28;20515;-69
2023/04/01 02:49:13;;;;;;;1.20;1.00;;;9.20;98.00;;;;;;5051387;28;20457;-70
2023/04/01 02:51:40;;;;;;;1.20;1.00;;;9.20;98.00;;;;;;5052117;28;20480;-70
2023/04/01 02:54:07;;;;;;;2.47;1.10;;;9.20;98.00;;;;;;5052216;28;20531;-69
2023/04/01 02:56:36;;;;;;;1.10;0.90;;;9.20;98.00;;;;;;5051986;28;21018;-69
2023/04/01 02:59:03;;;;;;;1.30;0.90;;;9.10;98.00;;;;;;5050921;28;20467;-70
2023/04/01 03:01:32;;;;;;;1.10;0.90;;;9.10;98.00;;;;;;5051997;28;20462;-70
2023/04/01 03:03:59;;;;;;;1.13;0.97;;;9.10;98.00;;;;;;5052024;28;20486;-70
2023/04/01 03:06:28;;;;;;;1.20;1.00;;;9.10;98.00;;;;;;5052012;28;20949;-70
2023/04/01 03:08:57;;;;;;;1.20;1.00;;;9.00;98.00;;;;;;5052027;28;20466;-70
2023/04/01 03:11:26;;;;;;;1.20;1.00;;;9.10;98.00;;;;;;5051873;28;20461;-70
2023/04/01 03:13:54;;;;;;;1.10;0.90;;;9.10;98.00;;;;;;5051928;28;20508;-69
2023/04/01 03:16:22;;;;;;;1.20;0.90;;;9.10;98.00;;;;;;5051902;28;20971;-70
2023/04/01 03:18:52;;;;;;;1.20;1.00;;;9.10;98.00;;;;;;5050760;28;20461;-70
2023/04/01 03:21:21;;;;;;;2.53;1.43;;;9.20;98.00;;;;;;5050687;28;20533;-70
2023/04/01 03:23:48;;;;;;;1.20;0.90;;;9.10;98.00;;;;;;5051944;28;20806;-70
2023/04/01 03:26:15;;;;;;;1.17;0.90;;;9.10;98.00;;;;;;5052037;28;20451;-70
2023/04/01 03:28:42;;;;;;;1.20;1.00;;;9.10;98.00;;;;;;5051619;28;20473;-70
2023/04/01 03:31:13;;;;;;;1.20;0.90;;;9.10;98.00;;;;;;5051253;28;20468;-70
2023/04/01 03:33:40;;;;;;;1.20;1.00;;;9.10;98.00;;;;;;5051464;28;20447;-69
2023/04/01 03:36:08;;;;;;;1.20;0.93;;;9.10;98.00;;;;;;5051546;28;20954;-71
2023/04/01 03:38:37;;;;;;;1.10;0.90;;;9.10;98.00;;;;;;5051123;28;20461;-70
2023/04/01 03:41:05;;;;;;;1.30;0.90;;;9.10;98.00;;;;;;5050305;28;20458;-70
2023/04/01 03:43:32;;;;;;;1.20;1.00;;;9.00;98.00;;;;;;5051243;28;20481;-70
2023/04/01 03:45:59;;;;;;;1.13;0.90;;;9.00;98.00;;;;;;5051313;28;20464;-70
2023/04/01 03:48:28;;;;;;;1.10;0.90;;;9.10;98.00;;;;;;5051127;28;20481;-70
2023/04/01 03:50:55;;;;;;;1.20;0.93;;;9.10;98.00;;;;;;5051236;28;20457;-70
2023/04/01 03:53:23;;;;;;;1.20;1.00;;;9.00;98.00;;;;;;5051481;28;20598;-70
2023/04/01 03:55:51;;;;;;;1.10;0.90;;;8.90;98.00;;;;;;5033528;28;20743;-70
2023/04/01 03:58:18;;;;;;;1.40;1.00;;;8.90;98.00;;;;;;5051233;28;20512;-70
2023/04/01 04:00:46;;;;;;;1.10;0.90;;;8.90;98.00;;;;;;5051030;28;20824;-70
2023/04/01 04:03:14;;;;;;;1.10;1.00;;;8.90;98.00;;;;;;5050985;28;20999;-70
2023/04/01 04:05:49;;;;;;;1.70;1.10;;;9.00;98.00;;;;;;5049873;28;20518;-70
2023/04/01 04:08:16;;;;;;;1.10;0.90;;;9.10;98.00;;;;;;5051065;28;20986;-70
2023/04/01 04:10:46;;;;;;;1.67;1.03;;;9.00;98.00;;;;;;5051375;28;20975;-70
2023/04/01 04:13:13;;;;;;;1.10;0.90;;;8.90;98.00;;;;;;5051054;28;20810;-70
2023/04/01 04:15:46;;;;;;;1.10;0.90;;;8.90;98.00;;;;;;5051225;28;20454;-70
2023/04/01 04:18:13;;;;;;;1.13;0.90;;;8.90;98.00;;;;;;5051224;28;20552;-70
2023/04/01 04:20:48;;;;;;;1.13;0.90;;;8.90;98.00;;;;;;5051337;28;20473;-70
2023/04/01 04:23:16;;;;;;;1.20;0.90;;;8.90;98.00;;;;;;5051130;28;20481;-70
2023/04/01 04:25:55;;;;;;;1.20;1.00;;;8.90;98.00;;;;;;5050851;28;20458;-70
2023/04/01 04:28:22;;;;;;;1.10;1.00;;;8.90;98.00;;;;;;5050882;28;20528;-70
2023/04/01 04:30:49;;;;;;;1.20;0.90;;;8.90;98.00;;;;;;5049742;28;20451;-70
2023/04/01 04:33:16;;;;;;;1.20;0.90;;;8.90;98.00;;;;;;5050937;28;20469;-70
2023/04/01 04:35:43;;;;;;;1.63;1.20;;;8.80;98.00;;;;;;5050780;28;20457;-70
2023/04/01 04:38:11;;;;;;;1.93;1.10;;;8.90;98.00;;;;;;5050911;28;20458;-70
2023/04/01 04:40:40;;;;;;;1.30;1.10;;;8.90;98.00;;;;;;5050840;28;20542;-70
2023/04/01 04:43:07;;;;;;;1.10;1.00;;;8.80;98.00;;;;;;5053076;28;20461;-70
2023/04/01 04:45:34;;;;;;;1.13;0.97;;;8.80;98.00;;;;;;5039578;28;20459;-70
2023/04/01 04:48:01;;;;;;;1.10;0.93;;;8.80;98.00;;;;;;5034786;28;20462;-70
2023/04/01 04:50:29;;;;;;;1.20;1.00;;;8.80;98.00;;;;;;5033402;28;20453;-70
2023/04/01 04:52:57;;;;;;;1.20;0.90;;;8.70;98.00;;;;;;5033366;28;20973;-70
2023/04/01 04:55:24;;;;;;;1.20;1.00;;;8.70;98.00;;;;;;5034598;28;20462;-69
2023/04/01 04:57:52;;;;;;;1.10;0.90;;;8.70;98.00;;;;;;5034452;28;20535;-70
2023/04/01 05:00:19;;;;;;;1.10;0.90;;;8.60;98.00;;;;;;5034512;28;20454;-69
2023/04/01 05:02:46;;;;;;;1.17;1.00;;;8.70;98.00;;;;;;5034505;28;20453;-70
2023/04/01 05:05:13;;;;;;;1.10;0.90;;;8.70;98.00;;;;;;5034322;28;20478;-70
2023/04/01 05:07:40;;;;;;;1.37;0.93;;;8.70;98.00;;;;;;5034285;28;20462;-70
2023/04/01 05:10:09;;;;;;;1.10;0.90;;;8.80;98.00;;;;;;5034789;28;20545;-70
2023/04/01 05:12:38;;;;;;;1.40;1.13;;;8.80;98.00;;;;;;5033231;28;20455;-70
2023/04/01 05:15:08;;;;;;;1.10;1.00;;;8.80;98.00;;;;;;5034303;28;20452;-70
2023/04/01 05:17:35;;;;;;;1.10;0.90;;;8.80;98.00;;;;;;5034232;28;20944;-70
2023/04/01 05:20:03;;;;;;;1.33;1.07;;;8.80;98.00;;;;;;5034372;28;20454;-70
2023/04/01 05:22:30;;;;;;;1.13;0.90;;;8.80;98.00;;;;;;5034573;28;20937;-70
2023/04/01 05:24:57;;;;;;;1.10;0.90;;;8.80;98.00;;;;;;5034038;28;20485;-70
2023/04/01 05:27:25;;;;;;;1.43;1.00;;;8.80;98.00;;;;;;5034013;28;20451;-69
2023/04/01 05:29:52;;;;;;;1.20;1.03;;;8.90;98.00;;;;;;5016577;28;20462;-70
2023/04/01 05:32:21;;;;;;;1.60;1.00;;;8.90;98.00;;;;;;5034181;28;20521;-70
2023/04/01 05:34:51;;;;;;;1.20;1.00;;;8.80;98.00;;;;;;5033896;28;20528;-70
2023/04/01 05:37:18;;;;;;;1.90;1.00;;;8.90;98.00;;;;;;5033948;28;20804;-69
2023/04/01 05:39:47;;;;;;;1.10;0.90;;;8.90;98.00;;;;;;5033660;28;20967;-70
2023/04/01 05:42:15;;;;;;;1.10;0.90;;;8.80;98.00;;;;;;5033912;28;20458;-70
2023/04/01 05:44:42;;;;;;;1.30;1.10;;;8.80;98.00;;;;;;5033506;28;21093;-70
2023/04/01 05:47:09;;;;;;;1.10;0.90;;;8.80;98.00;;;;;;5033596;28;20455;-70
2023/04/01 05:49:39;;;;;;;1.20;0.90;;;8.80;98.00;;;;;;5033605;28;20553;-70
2023/04/01 05:52:06;;;;;;;2.60;1.63;;;8.80;98.00;;;;;;5033733;28;20842;-70
2023/04/01 05:54:34;;;;;;;1.20;1.00;;;8.90;98.00;;;;;;5031844;28;20858;-69
2023/04/01 05:57:01;;;;;;;1.10;1.00;;;8.90;98.00;;;;;;5034026;28;20470;-70
2023/04/01 05:59:32;;;;;;;1.20;1.00;;;8.90;98.00;;;;;;5033229;28;20459;-70
2023/04/01 06:01:59;;;;;;;1.13;1.00;;;8.90;98.00;;;;;;5034296;28;20512;-66
2023/04/01 06:04:26;;;;;;;1.10;0.90;;;8.90;98.00;;;;;;5033831;28;20498;-65
2023/04/01 06:06:55;;;;;;;1.10;0.90;;;9.00;98.00;;;;;;5033710;28;21090;-66
2023/04/01 06:09:27;;;;;;;2.07;1.07;;;9.20;98.00;;;;;;5015991;28;20480;-66
2023/04/01 06:12:19;;;;;;;1.10;1.00;;;9.20;98.00;;;;;;5033194;28;20462;-67
2023/04/01 06:14:55;;;;;;;1.10;0.90;;;9.30;98.00;;;;;;5032926;28;20471;-66
2023/04/01 06:17:44;;;;;;;1.10;1.00;;;9.30;98.00;;;;;;5033249;28;20965;-65
2023/04/01 06:20:21;;;;;;;1.13;0.90;;;9.40;98.00;;;;;;5033010;28;20473;-66
2023/04/01 06:23:02;;;;;;;1.50;1.10;;;9.30;98.00;;;;;;5032927;28;20470;-65
2023/04/01 06:25:39;;;;;;;2.20;1.00;;;9.30;98.00;;;;;;5032757;28;20509;-65
2023/04/01 06:28:48;;;;;;;1.10;0.90;;;9.40;98.00;;;;;;5032818;28;20458;-66
2023/04/01 06:31:27;;;;;;;1.20;0.90;;;9.40;98.00;;;;;;4971343;28;20465;-66
2023/04/01 06:34:17;;;;;;;1.20;0.90;;;9.50;98.00;;;;;;4955328;28;20472;-66
2023/04/01 06:37:09;;;;;;;1.10;0.90;;;9.50;98.00;;;;;;5012927;28;20466;-67
2023/04/01 06:39:57;;;;;;;1.17;0.93;;;9.60;98.00;;;;;;5032511;28;20455;-67
2023/04/01 06:42:48;;;;;;;1.17;0.97;;;9.70;98.00;;;;;;5032457;28;20460;-65
2023/04/01 06:45:29;;;;;;;2.03;0.90;;;9.80;98.00;;;;;;5031073;28;20491;-65
2023/04/01 06:48:14;;;;;;;1.80;1.40;;;9.90;98.00;;;;;;5032289;28;20463;-65
2023/04/01 06:50:50;;;;;;;1.10;0.90;;;9.90;98.00;;;;;;5032392;28;20519;-66
2023/04/01 06:53:22;;;;;;;1.10;0.90;;;10.00;98.00;;;;;;5032264;28;20461;-65
2023/04/01 06:55:56;;;;;;;1.20;1.00;;;10.00;98.00;;;;;;5032174;28;20517;-66
2023/04/01 06:58:26;;;;;;;1.40;1.40;;;10.00;98.00;;;;;;5032321;28;20459;-66
2023/04/01 07:00:57;;;;;;;1.30;1.10;;;10.00;98.00;;;;;;5032338;28;20468;-65
2023/04/01 07:03:32;;;;;;;1.20;1.00;;;10.00;98.00;;;;;;5032105;28;20458;-66
2023/04/01 07:06:04;;;;;;;2.80;1.10;;;10.00;98.00;;;;;;5031130;28;21081;-65
2023/04/01 07:08:35;;;;;;;1.20;1.00;;;10.00;98.00;;;;;;5031921;28;20862;-65
2023/04/01 07:11:06;;;;;;;1.33;1.00;;;10.00;98.00;;;;;;5032158;28;20505;-66
2023/04/01 07:13:37;;;;;;;1.20;1.00;;;10.00;98.00;;;;;;5031899;28;20523;-67
2023/04/01 07:16:12;;;;;;;2.43;1.10;;;10.00;98.00;;;;;;5032134;28;20462;-66
2023/04/01 07:18:45;;;;;;;1.43;1.23;;;10.10;98.00;;;;;;5031943;28;20458;-65
2023/04/01 07:21:24;;;;;;;2.30;1.27;;;10.10;98.00;;;;;;5031921;28;21167;-66
2023/04/01 07:23:53;;;;;;;1.57;1.30;;;10.10;98.00;;;;;;5031981;28;20474;-66
2023/04/01 07:26:23;;;;;;;1.30;1.10;;;10.20;98.00;;;;;;5031763;28;20456;-66
2023/04/01 07:28:52;;;;;;;1.20;1.10;;;10.20;98.00;;;;;;5031599;28;20464;-65
2023/04/01 07:31:39;;;;;;;1.80;1.20;;;10.30;98.00;;;;;;5031742;28;20552;-65
2023/04/01 07:34:13;;;;;;;1.60;1.20;;;10.20;98.00;;;;;;5031858;28;20454;-66
2023/04/01 07:36:45;;;;;;;1.57;1.00;;;10.20;98.00;;;;;;5031620;28;20509;-66
2023/04/01 07:39:29;;;;;;;2.23;1.20;;;10.30;98.00;;;;;;5031560;28;20450;-65
2023/04/01 07:42:07;;;;;;;1.40;1.10;;;10.30;98.00;;;;;;5031582;28;21025;-65
2023/04/01 07:44:46;;;;;;;1.30;1.00;;;10.30;98.00;;;;;;5030084;28;20535;-65
2023/04/01 07:47:22;;;;;;;1.10;0.90;;;10.40;98.00;;;;;;5031684;28;20517;-65
2023/04/01 07:50:02;;;;;;;1.10;0.90;;;10.40;98.00;;;;;;5030699;28;20989;-65
2023/04/01 07:52:38;;;;;;;1.10;0.97;;;10.40;98.00;;;;;;5050054;28;21211;-65
2023/04/01 07:55:15;;;;;;;1.20;1.00;;;10.40;98.00;;;;;;5051923;28;20530;-65
2023/04/01 07:57:53;;;;;;;1.20;1.00;;;10.40;98.00;;;;;;5051869;28;20470;-65
2023/04/01 08:00:25;;;;;;;1.10;1.00;;;10.30;98.00;;;;;;5051564;28;20528;-66
2023/04/01 08:03:15;;;;;;;1.97;1.10;;;10.40;98.00;;;;;;5051711;28;20466;-65
2023/04/01 08:05:51;;;;;;;4.90;1.10;;;10.40;98.00;;;;;;5051217;28;20486;-65
2023/04/01 08:08:26;;;;;;;1.20;1.00;;;10.40;98.00;;;;;;5051366;28;20537;-65
2023/04/01 08:10:58;;;;;;;1.10;1.00;;;10.40;98.00;;;;;;5011886;28;20528;-65
2023/04/01 08:13:38;;;;;;;1.50;1.20;;;10.40;98.00;;;;;;5011414;28;20455;-66
2023/04/01 08:16:17;;;;;;;1.20;1.00;;;10.60;98.00;;;;;;5011583;28;20954;-65
2023/04/01 08:18:55;;;;;;;2.07;1.00;;;10.70;98.00;;;;;;5015777;28;20468;-66
2023/04/01 08:21:33;;;;;;;1.20;0.97;;;10.70;98.00;;;;;;5046426;28;20511;-65
2023/04/01 08:24:12;;;;;;;1.30;1.20;;;10.60;98.00;;;;;;5043473;28;20539;-65
2023/04/01 08:26:44;;;;;;;1.47;1.10;;;10.60;98.00;;;;;;5035893;28;20462;-66
2023/04/01 08:29:20;;;;;;;1.20;1.00;;;10.60;98.00;;;;;;5035081;28;20473;-65
2023/04/01 08:31:52;;;;;;;1.20;1.00;;;10.60;98.00;;;;;;5035052;28;20458;-65
2023/04/01 08:34:23;;;;;;;1.50;1.10;;;10.60;98.00;;;;;;5034897;28;20514;-65
2023/04/01 08:36:57;;;;;;;2.37;1.10;;;10.70;98.00;;;;;;5034743;28;20541;-66
2023/04/01 08:39:31;;;;;;;1.20;1.03;;;10.60;98.00;;;;;;5246999;22;20893;-65
2023/04/01 08:42:27;;;;;;;1.20;1.00;;;10.70;98.00;;;;;;5037675;28;20485;-64
2023/04/01 08:45:19;;;;;;;1.80;1.10;;;10.70;98.00;;;;;;5053821;28;20894;-65
2023/04/01 08:48:23;;;;;;;1.20;1.00;;;10.70;98.00;;;;;;5054171;28;20492;-65
2023/04/01 08:51:11;;;;;;;1.43;1.20;;;10.80;98.00;;;;;;5018555;28;20819;-65
2023/04/01 08:54:01;;;;;;;1.10;0.90;;;10.70;98.00;;;;;;5054457;28;20484;-65
2023/04/01 08:56:32;;;;;;;1.20;1.00;;;10.80;98.00;;;;;;5052207;28;20519;-65
2023/04/01 08:59:20;;;;;;;1.10;0.90;;;10.70;98.00;;;;;;5053501;28;20454;-65
2023/04/01 09:02:23;;;;;;;1.17;1.00;;;10.70;98.00;;;;;;5053235;28;20462;-65
2023/04/01 09:05:32;;;;;;;1.33;1.10;;;10.70;98.00;;;;;;5053055;28;20492;-64
2023/04/01 09:08:12;;;;;;;1.53;1.00;;;10.70;98.00;;;;;;5024913;28;20548;-65
2023/04/01 09:11:06;;;;;;;1.13;0.90;;;10.50;98.00;;;;;;5054344;28;20445;-65
2023/04/01 09:14:09;;;;;;;1.10;0.90;;;10.40;98.00;;;;;;5054198;28;20458;-64
2023/04/01 09:17:10;;;;;;;1.10;1.00;;;10.40;98.00;;;;;;5049367;28;20518;-65
2023/04/01 09:19:56;;;;;;;1.70;1.00;;;10.40;98.00;;;;;;5054063;28;20499;-65
2023/04/01 09:22:40;;;;;;;1.10;0.90;;;10.20;98.00;;;;;;5054059;28;20470;-65
2023/04/01 09:25:31;;;;;;;3.30;1.77;;;10.10;98.00;;;;;;5054141;28;20485;-65
2023/04/01 09:28:03;;;;;;;1.10;0.90;;;10.10;98.00;;;;;;5053909;28;20530;-65
2023/04/01 09:30:49;;;;;;;1.10;0.90;;;10.10;98.00;;;;;;5051840;28;20460;-66
2023/04/01 09:33:50;;;;;;;1.77;1.00;;;10.00;98.00;;;;;;5052104;28;20455;-64
2023/04/01 09:36:34;;;;;;;1.20;0.90;;;9.90;98.00;;;;;;5045610;28;20459;-65
2023/04/01 09:39:19;;;;;;;1.10;0.90;;;10.00;98.00;;;;;;5041929;28;20730;-64
2023/04/01 09:42:07;;;;;;;1.20;1.00;;;10.00;98.00;;;;;;5021169;28;20452;-64
2023/04/01 09:44:36;;;;;;;1.30;1.10;;;10.10;98.00;;;;;;5033835;28;20469;-64
2023/04/01 09:47:17;;;;;;;1.40;0.90;;;10.10;98.00;;;;;;5051474;28;20824;-64
2023/04/01 09:50:21;;;;;;;1.37;1.07;;;10.20;98.00;;;;;;5053439;28;20461;-65
2023/04/01 09:53:04;;;;;;;1.40;1.00;;;10.20;98.00;;;;;;5053351;28;20468;-65
2023/04/01 09:56:08;;;;;;;1.93;1.20;;;10.20;98.00;;;;;;5037966;28;20778;-65
2023/04/01 09:59:09;;;;;;;1.20;0.90;;;10.10;98.00;;;;;;5023656;28;20469;-65
2023/04/01 10:02:34;;;;;;;1.30;1.10;;;10.20;98.00;;;;;;5030818;28;20505;-65
2023/04/01 10:05:35;;;;;;;2.67;1.73;;;10.20;98.00;;;;;;5033312;28;20495;-65
2023/04/01 10:08:42;;;;;;;1.20;1.00;;;10.30;98.00;;;;;;5033317;28;20855;-65
2023/04/01 10:11:45;;;;;;;1.20;1.00;;;10.40;98.00;;;;;;5003683;28;20865;-65
2023/04/01 10:14:38;;;;;;;1.20;1.00;;;10.30;98.00;;;;;;5000219;28;20874;-65
2023/04/01 10:17:40;;;;;;;1.30;1.10;;;10.20;98.00;;;;;;5033347;28;20870;-64
2023/04/01 10:20:27;;;;;;;1.17;1.10;;;10.20;98.00;;;;;;5031942;28;20484;-65
2023/04/01 10:23:31;;;;;;;1.20;1.00;;;10.20;98.00;;;;;;5033079;28;20527;-64
2023/04/01 10:26:26;;;;;;;1.30;1.00;;;10.20;98.00;;;;;;5001959;28;20515;-65
2023/04/01 10:29:31;;;;;;;1.30;1.10;;;10.10;98.00;;;;;;5032754;28;20460;-65
2023/04/01 10:32:56;;;;;;;1.10;1.00;;;10.10;98.00;;;;;;5031560;28;20454;-65
2023/04/01 10:35:56;;;;;;;1.30;0.90;;;10.20;98.00;;;;;;5032776;28;20483;-65
2023/04/01 10:38:56;;;;;;;1.10;1.00;;;10.20;98.00;;;;;;5032603;28;20528;-65
2023/04/01 10:41:53;;;;;;;1.83;1.00;;;10.30;98.00;;;;;;5032165;28;21014;-66
2023/04/01 10:44:56;;;;;;;1.20;1.00;;;10.20;98.00;;;;;;4993837;28;20466;-65
2023/04/01 10:48:14;;;;;;;1.20;1.03;;;10.30;98.00;;;;;;5008684;28;20455;-65
2023/04/01 10:51:18;;;;;;;1.10;1.00;;;10.30;98.00;;;;;;4971429;28;20465;-65
2023/04/01 10:54:15;;;;;;;1.20;1.00;;;10.30;98.00;;;;;;4970899;28;20549;-65
2023/04/01 10:56:52;;;;;;;1.67;0.97;;;10.30;98.00;;;;;;5026597;28;20499;-65
2023/04/01 10:59:42;;;;;;;1.30;1.00;;;10.30;98.00;;;;;;5036266;28;20464;-66
2023/04/01 11:03:04;;;;;;;1.10;0.90;;;10.40;98.00;;;;;;5052495;28;20514;-65
2023/04/01 11:06:17;;;;;;;1.10;0.90;;;10.30;98.00;;;;;;5051921;28;20571;-65
2023/04/01 11:09:12;;;;;;;1.10;0.90;;;10.20;98.00;;;;;;5051848;28;20864;-65
2023/04/01 11:12:31;;;;;;;1.10;0.90;;;10.10;98.00;;;;;;5050882;28;20523;-65
2023/04/01 11:15:37;;;;;;;1.27;1.00;;;10.10;98.00;;;;;;5051915;28;20465;-65
2023/04/01 11:18:57;;;;;;;1.47;1.03;;;10.00;98.00;;;;;;5026120;28;20841;-64
2023/04/01 11:21:53;;;;;;;1.20;1.00;;;10.00;98.00;;;;;;5051818;28;20884;-65
2023/04/01 11:24:47;;;;;;;1.10;1.00;;;9.90;98.00;;;;;;5051546;28;20621;-65
2023/04/01 11:27:31;;;;;;;1.10;0.90;;;9.90;98.00;;;;;;5050807;28;20549;-65
2023/04/01 11:30:10;;;;;;;1.10;1.00;;;9.80;98.00;;;;;;5051949;28;20832;-64
2023/04/01 11:32:47;;;;;;;1.57;1.20;;;9.90;98.00;;;;;;5039771;28;20450;-65
2023/04/01 11:35:34;;;;;;;2.53;0.97;;;10.00;98.00;;;;;;5031553;28;20920;-66
2023/04/01 11:38:15;;;;;;;1.10;1.00;;;10.00;98.00;;;;;;5030306;28;20462;-65
2023/04/01 11:40:51;;;;;;;1.20;1.10;;;10.00;98.00;;;;;;5031678;28;20466;-66
2023/04/01 11:43:27;;;;;;;1.10;0.90;;;10.00;98.00;;;;;;5031417;28;20465;-65
2023/04/01 11:46:01;;;;;;;1.20;1.00;;;10.00;98.00;;;;;;5031001;28;20981;-65
2023/04/01 11:48:53;;;;;;;1.40;1.10;;;10.00;98.00;;;;;;5030137;28;20458;-66
2023/04/01 11:51:45;;;;;;;1.27;1.00;;;10.10;98.00;;;;;;5031092;28;20459;-65
2023/04/01 11:54:25;;;;;;;1.13;1.00;;;10.10;98.00;;;;;;5028768;28;20532;-65
2023/04/01 11:57:19;;;;;;;4.33;1.10;;;10.20;98.00;;;;;;5030162;28;20526;-65
2023/04/01 12:00:00;;;;;;;1.10;0.97;;;10.30;98.00;;;;;;5031399;28;20553;-65
2023/04/01 12:02:35;;;;;;;1.10;1.00;;;10.30;98.00;;;;;;5029516;28;20454;-67
2023/04/01 12:05:18;;;;;;;1.10;1.00;;;10.40;98.00;;;;;;5031376;28;20464;-67
2023/04/01 12:08:05;;;;;;;1.20;1.00;;;10.40;98.00;;;;;;5031189;28;20455;-67
2023/04/01 12:10:40;;;;;;;1.10;1.00;;;10.40;98.00;;;;;;5031162;28;20462;-66
2023/04/01 12:13:25;;;;;;;1.40;1.00;;;10.60;98.00;;;;;;5029947;28;20932;-65
2023/04/01 12:16:19;;;;;;;1.37;1.00;;;10.60;98.00;;;;;;5027743;28;20467;-64
2023/04/01 12:18:56;;;;;;;1.20;1.07;;;10.60;98.00;;;;;;5027382;28;20459;-66
2023/04/01 12:21:33;;;;;;;1.20;1.00;;;10.70;98.00;;;;;;4991431;28;20460;-66
2023/04/01 12:24:25;;;;;;;1.17;1.00;;;10.70;98.00;;;;;;5007966;28;20464;-67
2023/04/01 12:27:15;;;;;;;1.20;1.00;;;10.70;98.00;;;;;;5008054;28;20530;-67
2023/04/01 12:29:56;;;;;;;1.20;1.00;;;10.70;98.00;;;;;;5004828;28;20532;-66
2023/04/01 12:32:32;;;;;;;1.10;0.90;;;10.70;98.00;;;;;;5011744;28;20462;-66
2023/04/01 12:35:19;;;;;;;1.10;0.90;;;10.80;98.00;;;;;;5011826;28;20455;-66
2023/04/01 12:37:53;;;;;;;1.10;0.90;;;10.80;98.00;;;;;;5013484;28;20859;-65
2023/04/01 12:40:38;;;;;;;1.10;1.00;;;10.70;98.00;;;;;;5012969;28;20603;-66
2023/04/01 12:43:35;;;;;;;1.20;0.93;;;10.80;98.00;;;;;;5019292;28;20832;-66
2023/04/01 12:46:13;;;;;;;1.20;0.93;;;10.80;98.00;;;;;;5017659;28;20487;-66
2023/04/01 12:49:13;;;;;;;1.10;0.93;;;10.70;98.00;;;;;;5011794;28;20463;-66
2023/04/01 12:51:54;;;;;;;1.20;1.00;;;10.70;98.00;;;;;;4980906;28;20526;-66
2023/04/01 12:54:56;;;;;;;1.10;0.90;;;10.70;98.00;;;;;;4995957;28;20466;-65
2023/04/01 12:57:50;;;;;;;1.10;0.97;;;10.70;98.00;;;;;;5008800;28;20935;-61
2023/04/01 13:00:31;;;;;;;1.10;0.90;;;10.70;98.00;;;;;;5008526;28;20533;-65
2023/04/01 13:03:15;;;;;;;1.10;0.90;;;10.70;98.00;;;;;;5011165;28;20461;-60
2023/04/01 13:06:22;;;;;;;1.20;1.00;;;10.70;98.00;;;;;;5014412;28;20852;-59
2023/04/01 13:09:05;;;;;;;1.10;0.90;;;10.70;98.00;;;;;;5009602;28;20462;-55
2023/04/01 13:11:46;;;;;;;1.40;1.13;;;10.70;98.00;;;;;;5015587;28;20470;-65
2023/04/01 13:14:55;;;;;;;1.10;0.90;;;10.70;98.00;;;;;;5015255;28;20483;-59
2023/04/01 13:17:29;;;;;;;1.20;1.00;;;10.70;98.00;;;;;;5015221;28;20474;-60
2023/04/01 13:20:05;;;;;;;1.13;1.00;;;10.80;98.00;;;;;;5015026;28;20800;-63
2023/04/01 13:22:42;;;;;;;1.20;1.00;;;10.80;98.00;;;;;;5014718;28;20464;-66
2023/04/01 13:25:23;;;;;;;1.40;1.00;;;10.80;98.00;;;;;;5013829;28;20455;-64
2023/04/01 13:27:56;;;;;;;1.20;1.10;;;10.80;98.00;;;;;;5014852;28;20503;-64
2023/04/01 13:30:29;;;;;;;1.10;1.00;;;10.90;98.00;;;;;;5015014;28;20457;-65
2023/04/01 13:33:01;;;;;;;1.10;0.90;;;10.90;98.00;;;;;;5014714;28;20489;-65
2023/04/01 13:35:39;;;;;;;1.10;1.00;;;11.00;98.00;;;;;;5014788;28;20891;-65
2023/04/01 13:38:39;;;;;;;1.20;1.00;;;11.00;98.00;;;;;;5014593;28;20839;-67
2023/04/01 13:41:16;;;;;;;1.40;1.00;;;11.10;98.00;;;;;;5012246;28;20469;-65
2023/04/01 13:43:50;;;;;;;1.40;1.00;;;11.00;98.00;;;;;;5014662;28;20459;-66
2023/04/01 13:46:49;;;;;;;1.10;0.90;;;11.00;98.00;;;;;;5029891;28;20475;-66
2023/04/01 13:49:40;;;;;;;1.13;0.97;;;11.00;98.00;;;;;;5012823;28;20894;-67
2023/04/01 13:52:36;;;;;;;1.10;0.90;;;11.00;98.00;;;;;;5032979;28;20545;-66